createdAt,value
2022-10-07T00:00:14.131Z,6.90
2022-10-07T00:05:16.663Z,6.89
2022-10-07T00:10:17.580Z,6.85
2022-10-07T00:15:18.712Z,6.80
2022-10-07T00:20:20.928Z,6.75
2022-10-07T00:25:22.408Z,6.73
2022-10-07T00:30:23.299Z,6.70
2022-10-07T00:35:25.478Z,6.68
2022-10-07T00:40:26.335Z,6.69
2022-10-07T00:45:27.152Z,6.68
2022-10-07T00:50:30.465Z,6.61
2022-10-07T00:55:33.495Z,6.52
2022-10-07T01:00:34.398Z,6.47
2022-10-07T01:05:36.571Z,6.38
2022-10-07T01:10:46.434Z,6.34
2022-10-07T01:15:57.443Z,6.24
2022-10-07T01:21:05.213Z,6.27
2022-10-07T01:26:37.850Z,6.23
2022-10-07T01:31:45.077Z,6.08
2022-10-07T01:36:51.890Z,6.08
2022-10-07T01:41:54.512Z,6.08
2022-10-07T01:46:55.415Z,6.05
2022-10-07T01:52:12.263Z,6.03
2022-10-07T01:57:26.829Z,6.01
2022-10-07T02:02:40.869Z,6.00
2022-10-07T02:07:53.636Z,5.96
2022-10-07T02:13:00.925Z,5.89
2022-10-07T02:18:09.380Z,5.88
2022-10-07T02:23:13.379Z,5.83
2022-10-07T02:28:18.490Z,5.83
2022-10-07T02:33:21.506Z,5.81
2022-10-07T02:38:23.644Z,5.77
2022-10-07T02:43:31.073Z,5.67
2022-10-07T02:48:36.307Z,5.65
2022-10-07T02:53:41.685Z,5.64
2022-10-07T02:58:46.459Z,5.55
2022-10-07T03:03:49.643Z,5.52
2022-10-07T03:08:51.838Z,5.49
2022-10-07T03:13:54.260Z,5.51
2022-10-07T03:18:55.427Z,5.57
2022-10-07T03:24:05.655Z,5.54
2022-10-07T03:29:15.060Z,5.47
2022-10-07T03:34:16.421Z,5.42
2022-10-07T03:39:21.109Z,5.42
2022-10-07T03:44:23.704Z,5.40
2022-10-07T03:49:25.994Z,5.39
2022-10-07T03:54:27.216Z,5.41
2022-10-07T03:59:30.225Z,5.39
2022-10-07T04:04:31.087Z,5.43
2022-10-07T04:09:32.394Z,5.39
2022-10-07T04:14:35.830Z,5.36
2022-10-07T04:19:37.191Z,5.34
2022-10-07T04:24:38.379Z,5.26
2022-10-07T04:29:40.589Z,5.22
2022-10-07T04:34:41.773Z,5.24
2022-10-07T04:39:59.687Z,5.30
2022-10-07T04:45:03.889Z,5.38
2022-10-07T04:50:07.935Z,5.27
2022-10-07T04:55:09.689Z,5.19
2022-10-07T05:00:13.285Z,5.14
2022-10-07T05:05:14.886Z,5.11
2022-10-07T05:10:15.933Z,5.04
2022-10-07T05:15:18.177Z,5.12
2022-10-07T05:20:19.197Z,5.10
2022-10-07T05:25:21.708Z,5.03
2022-10-07T05:30:23.953Z,5.10
2022-10-07T05:35:24.925Z,5.10
2022-10-07T05:40:25.789Z,5.21
2022-10-07T05:45:28.201Z,5.18
2022-10-07T05:50:29.458Z,5.22
2022-10-07T05:55:30.381Z,5.32
2022-10-07T06:00:35.313Z,5.38
2022-10-07T06:05:36.614Z,5.45
2022-10-07T06:10:54.957Z,5.58
2022-10-07T06:16:01.910Z,5.66
2022-10-07T06:21:03.606Z,5.78
2022-10-07T06:26:07.274Z,5.95
2022-10-07T06:31:12.059Z,6.05
2022-10-07T06:36:14.914Z,6.25
2022-10-07T06:41:18.787Z,6.34
2022-10-07T06:46:23.858Z,6.51
2022-10-07T06:51:25.904Z,6.74
2022-10-07T06:56:29.578Z,6.93
2022-10-07T07:01:33.157Z,7.07
2022-10-07T07:06:36.857Z,7.26
2022-10-07T07:11:41.718Z,7.44
2022-10-07T07:16:49.844Z,7.65
2022-10-07T07:21:51.771Z,7.91
2022-10-07T07:26:55.574Z,8.15
2022-10-07T07:32:00.911Z,8.37
2022-10-07T07:37:04.087Z,8.68
2022-10-07T07:42:11.733Z,8.91
2022-10-07T07:47:16.359Z,9.27
2022-10-07T07:52:17.934Z,9.58
2022-10-07T07:57:21.404Z,9.92
2022-10-07T08:02:23.990Z,10.28
2022-10-07T08:07:26.893Z,10.48
2022-10-07T08:12:27.904Z,10.74
2022-10-07T08:17:30.953Z,11.00
2022-10-07T08:22:31.828Z,11.21
2022-10-07T08:27:33.600Z,11.49
2022-10-07T08:32:35.936Z,11.66
2022-10-07T08:37:36.744Z,11.86
2022-10-07T08:42:40.656Z,12.06
2022-10-07T08:47:45.510Z,12.24
2022-10-07T08:52:52.305Z,12.39
2022-10-07T08:58:16.221Z,12.55
2022-10-07T09:03:32.076Z,12.73
2022-10-07T09:08:38.544Z,12.90
2022-10-07T09:13:42.889Z,13.04
2022-10-07T09:18:53.918Z,13.21
2022-10-07T09:23:57.933Z,13.28
2022-10-07T09:28:59.953Z,13.48
2022-10-07T09:34:02.653Z,13.71
2022-10-07T09:39:17.582Z,13.85
2022-10-07T09:44:27.608Z,14.02
2022-10-07T09:49:38.252Z,14.11
2022-10-07T09:54:39.095Z,14.25
2022-10-07T09:59:40.256Z,14.40
2022-10-07T10:04:50.344Z,14.63
2022-10-07T10:09:54.071Z,14.74
2022-10-07T10:14:58.997Z,14.93
2022-10-07T10:20:29.086Z,15.05
2022-10-07T10:25:58.474Z,15.14
2022-10-07T10:31:08.706Z,15.42
2022-10-07T10:36:17.272Z,15.58
2022-10-07T10:41:30.387Z,15.77
2022-10-07T10:46:47.372Z,15.98
2022-10-07T10:52:13.586Z,16.14
2022-10-07T10:57:21.063Z,16.25
2022-10-07T11:02:40.621Z,16.22
2022-10-07T11:07:47.846Z,16.36
2022-10-07T11:12:54.662Z,16.60
2022-10-07T11:18:01.567Z,16.80
2022-10-07T11:23:10.824Z,16.96
2022-10-07T11:28:18.233Z,17.10
2022-10-07T11:33:24.011Z,17.20
2022-10-07T11:38:33.381Z,17.28
2022-10-07T11:43:41.335Z,17.23
2022-10-07T11:48:46.074Z,17.32
2022-10-07T11:53:48.593Z,17.43
2022-10-07T11:58:59.287Z,17.64
2022-10-07T12:04:25.493Z,17.89
2022-10-07T12:09:55.217Z,18.09
2022-10-07T12:15:00.908Z,18.14
2022-10-07T12:20:37.757Z,18.30
2022-10-07T12:25:44.903Z,18.40
2022-10-07T12:30:52.559Z,18.45
2022-10-07T12:35:54.753Z,18.58
2022-10-07T12:41:23.141Z,18.63
2022-10-07T12:46:26.950Z,18.68
2022-10-07T12:51:31.560Z,18.67
2022-10-07T12:56:33.871Z,18.70
2022-10-07T13:01:50.179Z,18.58
2022-10-07T13:07:21.279Z,18.67
2022-10-07T13:12:38.679Z,18.63
2022-10-07T13:17:48.275Z,18.67
2022-10-07T13:22:50.663Z,18.65
2022-10-07T13:27:55.817Z,18.86
2022-10-07T13:32:56.615Z,18.85
2022-10-07T13:37:57.658Z,18.94
2022-10-07T13:43:02.057Z,18.92
2022-10-07T13:48:02.936Z,18.73
2022-10-07T13:53:03.725Z,18.82
2022-10-07T13:58:07.273Z,18.71
2022-10-07T14:03:14.770Z,18.65
2022-10-07T14:08:21.333Z,18.50
2022-10-07T14:13:23.895Z,18.60
2022-10-07T14:18:27.638Z,18.64
2022-10-07T14:23:32.788Z,18.61
2022-10-07T14:28:36.301Z,18.51
2022-10-07T14:34:06.183Z,18.56
2022-10-07T14:39:23.507Z,18.64
2022-10-07T14:44:26.223Z,18.51
2022-10-07T14:49:28.329Z,18.37
2022-10-07T14:54:29.221Z,18.27
2022-10-07T14:59:31.377Z,17.98
2022-10-07T15:04:32.616Z,18.12
2022-10-07T15:09:33.521Z,18.06
2022-10-07T15:14:35.668Z,17.90
2022-10-07T15:19:36.801Z,17.89
2022-10-07T15:24:37.647Z,17.73
2022-10-07T15:29:40.049Z,17.61
2022-10-07T15:34:40.826Z,17.31
2022-10-07T15:39:41.617Z,17.21
2022-10-07T15:44:44.566Z,17.13
2022-10-07T15:49:45.553Z,17.15
2022-10-07T15:54:46.680Z,17.16
2022-10-07T15:59:48.916Z,17.05
2022-10-07T16:04:49.730Z,16.95
2022-10-07T16:09:50.573Z,16.74
2022-10-07T16:14:53.047Z,16.66
2022-10-07T16:19:53.883Z,16.61
2022-10-07T16:24:55.600Z,16.46
2022-10-07T16:30:15.404Z,16.30
2022-10-07T16:35:16.368Z,16.19
2022-10-07T16:40:17.172Z,16.16
2022-10-07T16:45:19.383Z,16.13
2022-10-07T16:50:20.989Z,15.95
2022-10-07T16:55:21.848Z,15.77
2022-10-07T17:00:24.124Z,15.67
2022-10-07T17:05:24.904Z,15.60
2022-10-07T17:10:25.871Z,15.54
2022-10-07T17:15:28.152Z,15.48
2022-10-07T17:20:29.142Z,15.42
2022-10-07T17:25:29.946Z,15.34
2022-10-07T17:30:33.517Z,15.43
2022-10-07T17:35:34.740Z,15.46
2022-10-07T17:40:37.473Z,15.45
2022-10-07T17:45:41.835Z,15.47
2022-10-07T17:50:42.846Z,15.42
2022-10-07T17:55:51.607Z,15.26
2022-10-07T18:00:53.830Z,15.04
2022-10-07T18:05:55.035Z,14.84
2022-10-07T18:10:55.934Z,14.65
2022-10-07T18:16:02.419Z,14.49
2022-10-07T18:21:05.437Z,14.41
2022-10-07T18:26:07.118Z,14.26
2022-10-07T18:31:12.012Z,14.13
2022-10-07T18:36:15.178Z,14.00
2022-10-07T18:41:18.262Z,13.90
2022-10-07T18:46:20.564Z,13.82
2022-10-07T18:51:21.353Z,13.69
2022-10-07T18:56:24.265Z,13.52
2022-10-07T19:01:30.306Z,13.45
2022-10-07T19:06:33.376Z,13.30
2022-10-07T19:11:34.683Z,13.22
2022-10-07T19:16:38.636Z,13.17
2022-10-07T19:21:40.422Z,13.08
2022-10-07T19:26:43.365Z,12.96
2022-10-07T19:31:48.732Z,12.88
2022-10-07T19:36:50.919Z,12.79
2022-10-07T19:41:51.733Z,12.74
2022-10-07T19:46:54.349Z,12.65
2022-10-07T19:51:55.183Z,12.60
2022-10-07T19:56:56.158Z,12.55
2022-10-07T20:02:01.063Z,12.57
2022-10-07T20:07:02.230Z,12.51
2022-10-07T20:12:04.654Z,12.56
2022-10-07T20:17:07.490Z,12.51
2022-10-07T20:22:08.551Z,12.41
2022-10-07T20:27:09.421Z,12.31
2022-10-07T20:32:11.686Z,12.24
2022-10-07T20:37:12.532Z,12.26
2022-10-07T20:42:24.329Z,12.17
2022-10-07T20:47:29.943Z,12.06
2022-10-07T20:52:32.876Z,12.08
2022-10-07T20:57:37.905Z,12.03
2022-10-07T21:02:40.134Z,12.01
2022-10-07T21:07:41.079Z,11.88
2022-10-07T21:12:41.868Z,11.87
2022-10-07T21:17:45.939Z,11.77
2022-10-07T21:22:48.577Z,11.66
2022-10-07T21:27:49.720Z,11.72
2022-10-07T21:32:51.828Z,11.61
2022-10-07T21:37:52.648Z,11.59
2022-10-07T21:42:53.455Z,11.51
2022-10-07T21:47:55.656Z,11.47
2022-10-07T21:52:56.572Z,11.39
2022-10-07T21:57:57.572Z,11.35
2022-10-07T22:02:59.779Z,11.33
2022-10-07T22:08:17.917Z,11.27
2022-10-07T22:13:18.678Z,11.25
2022-10-07T22:18:20.842Z,11.29
2022-10-07T22:23:21.626Z,11.26
2022-10-07T22:28:22.513Z,11.20
2022-10-07T22:33:24.694Z,11.15
2022-10-07T22:38:25.474Z,11.09
2022-10-07T22:43:26.276Z,11.01
2022-10-07T22:48:31.000Z,10.96
2022-10-07T22:53:31.758Z,10.94
2022-10-07T22:58:32.577Z,10.87
2022-10-07T23:03:36.186Z,10.93
2022-10-07T23:08:37.381Z,10.84
2022-10-07T23:13:38.257Z,10.76
2022-10-07T23:18:43.186Z,10.69
2022-10-07T23:23:46.924Z,10.61
2022-10-07T23:28:49.350Z,10.63
2022-10-07T23:33:52.795Z,10.53
2022-10-07T23:38:54.208Z,10.41
2022-10-07T23:43:57.212Z,10.41
2022-10-07T23:48:59.956Z,10.41
2022-10-07T23:54:02.069Z,10.35
2022-10-07T23:59:03.923Z,10.25
